Home > Products > Valid Products > TAF

000
FTUS44 KLZK 011200 AAA
TAFPBF
TAF AMD
KPBF 011212Z 0112/0212 VRB04KT 4SM -RA BR BKN020 BKN030
     FM011600 VRB04KT 4SM -RA BR BKN020 OVC030
     FM020600 02010KT 4SM -RA BR BKN005 OVC010=



000
FTUS44 KLZK 011100
TAFLIT
TAF
KLIT 011120Z 0112/0212 VRB04KT 4SM -RA BR SCT020 BKN030
     FM011400 VRB04KT 4SM -RA BR SCT010 BKN020
     FM011600 VRB04KT 4SM -RA BR OVC010
     FM020600 02010KT 4SM -RA BR BKN005 OVC010=



000
FTUS44 KLZK 011100
TAFPBF
TAF
KPBF 011120Z 0112/0212 VRB04KT P6SM SCT030 BKN050
     FM011400 VRB04KT 4SM -RA BR SCT020 BKN030
     FM011600 VRB04KT 4SM -RA BR BKN020 OVC030
     FM020600 02010KT 4SM -RA BR BKN005 OVC010=



000
FTUS44 KLZK 011100
TAFHOT
TAF
KHOT 011120Z 0112/0212 06003KT 5SM -RA BR SCT025 BKN040
     FM011300 VRB03KT 5SM -RA BR BKN010 OVC040
     FM011800 04002KT 5SM -RA BR BKN005 OVC010
     FM020600 07006KT 4SM -RA BR OVC005=



000
FTUS44 KLZK 011100
TAFHRO
TAF
KHRO 011120Z 0112/0212 14004KT 3SM -FZRAPL BR OVC003
     FM011400 VRB05KT 5SM BR OVC007
     FM020600 VRB04KT 4SM BR BKN004 OVC007=



000
FTUS44 KLZK 010600 AAA
TAFPBF
TAF AMD
KPBF 010603Z 0106/0206 07004KT P6SM VCSH OVC050
      TEMPO 0106/0110 -PL
     FM011000 02003KT 5SM -RA BR SCT007 OVC020
     FM011500 03003KT 5SM -RA BR OVC007
     FM020000 04005KT 3SM BR OVC004=



000
FTUS44 KLZK 010600 AAA
TAFPBF
TAF AMD
KPBF 010603Z 0106/0206 07004KT P6SM VCSH OVC050
      TEMPO 0106/0110 -PL
     FM011000 02003KT 5SM -RA BR SCT007 OVC020
     FM011500 03003KT 5SM -RA BR OVC007
     FM020000 04005KT 3SM BR OVC004=



000
FTUS44 KLZK 010500
TAFHRO
TAF
KHRO 010520Z 0106/0206 14004KT 3SM -FZRAPL BR OVC003
     FM011400 32005KT 5SM BR OVC007
     FM011800 34006KT 3SM BR OVC004=



000
FTUS44 KLZK 010500
TAFHOT
TAF
KHOT 010520Z 0106/0206 08006KT 6SM -RAPL BR SCT015 OVC040
     FM010900 06003KT 5SM -RA BR SCT007 OVC030
     FM011200 06003KT 5SM -RA BR OVC007
     FM011900 04002KT 3SM BR OVC004=



000
FTUS44 KLZK 010500
TAFHOT
TAF
KHOT 010520Z 0106/0206 08006KT 6SM -RAPL BR SCT015 OVC040
     FM010900 06003KT 5SM -RA BR SCT007 OVC030
     FM011200 06003KT 5SM -RA BR OVC007
     FM011900 04002KT 3SM BR OVC004=



000
FTUS44 KLZK 010500
TAFPBF
TAF
KPBF 010520Z 0106/0206 07004KT P6SM VCSH OVC050
     FM011000 02003KT 5SM -RA BR SCT007 OVC020
     FM011500 03003KT 5SM -RA BR OVC007
     FM020000 04005KT 3SM BR OVC004=



000
FTUS44 KLZK 010500
TAFLIT
TAF
KLIT 010520Z 0106/0206 06003KT 5SM -RAPL BR SCT015 OVC050
      TEMPO 0106/0109 -FZRA
     FM010900 06003KT 5SM -RA BR SCT007 OVC030
     FM011200 06003KT 5SM -RA BR OVC007
     FM012000 04002KT 3SM BR OVC004=



000
FTUS44 KLZK 010500
TAFHRO
TAF
KHRO 010520Z 0106/0206 14004KT 3SM -FZRAPL BR OVC003
     FM011400 32005KT 5SM BR OVC007
     FM011800 34006KT 3SM BR OVC004=



000
FTUS44 KLZK 010500
TAFPBF
TAF
KPBF 010520Z 0106/0206 07004KT P6SM VCSH OVC050
     FM011000 02003KT 5SM -RA BR SCT007 OVC020
     FM011500 03003KT 5SM -RA BR OVC007
     FM020000 04005KT 3SM BR OVC004=



000
FTUS44 KLZK 010500
TAFLIT
TAF
KLIT 010520Z 0106/0206 06003KT 5SM -RAPL BR SCT015 OVC050
      TEMPO 0106/0109 -FZRA
     FM010900 06003KT 5SM -RA BR SCT007 OVC030
     FM011200 06003KT 5SM -RA BR OVC007
     FM012000 04002KT 3SM BR OVC004=



000
FTUS44 KLZK 010100 AAA
TAFHRO
TAF AMD
KHRO 010142Z 0102/0124 13006KT 5SM -FZRAPL BR SCT005 OVC009
      TEMPO 0102/0106 2SM -FZRA BR OVC005
     FM010600 14004KT 4SM -FZRAPL BR OVC005
     FM011400 32005KT 5SM BR OVC007
     FM011800 34006KT 3SM BR OVC004=



000
FTUS44 KLZK 010100 AAA
TAFHRO
TAF AMD
KHRO 010142Z 0102/0124 13006KT 5SM -FZRAPL BR SCT005 OVC009
      TEMPO 0102/0106 2SM -FZRA BR OVC005
     FM010600 14004KT 4SM -FZRAPL BR OVC005
     FM011400 32005KT 5SM BR OVC007
     FM011800 34006KT 3SM BR OVC004=



000
FTUS44 KLZK 282300
TAFHRO
TAF
KHRO 282320Z 0100/0124 13006KT 5SM -FZRAPL BR SCT005 OVC009
     FM010600 14004KT 4SM -FZRAPL BR OVC005
     FM011400 32005KT 5SM BR OVC007
     FM011800 34006KT 3SM BR OVC004=



000
FTUS44 KLZK 282300
TAFHOT
TAF
KHOT 282320Z 0100/0124 07004KT P6SM VCSH OVC050
     FM010600 06003KT 5SM -RA BR SCT015 OVC030
     FM010900 06003KT 5SM -RA BR SCT007 OVC020
     FM011200 06003KT 5SM -RA BR OVC007
     FM011800 04002KT 3SM BR OVC004=



000
FTUS44 KLZK 282300
TAFHRO
TAF
KHRO 282320Z 0100/0124 13006KT 5SM -FZRAPL BR SCT005 OVC009
     FM010600 14004KT 4SM -FZRAPL BR OVC005
     FM011400 32005KT 5SM BR OVC007
     FM011800 34006KT 3SM BR OVC004=



000
FTUS44 KLZK 282300
TAFLIT
TAF
KLIT 282320Z 0100/0124 08004KT P6SM VCSH BKN050 OVC100
     FM010600 06003KT 5SM -RA BR SCT015 OVC030
     FM010900 06003KT 5SM -RA BR SCT007 OVC020
     FM011200 06003KT 5SM -RA BR OVC007
     FM011800 04002KT 3SM BR OVC004=



000
FTUS44 KLZK 282300
TAFPBF
TAF
KPBF 282320Z 0100/0124 03005KT P6SM VCSH OVC080
     FM010600 07004KT P6SM VCSH OVC050
     FM011200 02003KT 5SM -RA BR SCT007 OVC020
     FM011500 03003KT 5SM -RA BR OVC007=



000
FTUS44 KLZK 282300
TAFHOT
TAF
KHOT 282320Z 0100/0124 07004KT P6SM VCSH OVC050
     FM010600 06003KT 5SM -RA BR SCT015 OVC030
     FM010900 06003KT 5SM -RA BR SCT007 OVC020
     FM011200 06003KT 5SM -RA BR OVC007
     FM011800 04002KT 3SM BR OVC004=



000
FTUS44 KLZK 282300
TAFLIT
TAF
KLIT 282320Z 0100/0124 08004KT P6SM VCSH BKN050 OVC100
     FM010600 06003KT 5SM -RA BR SCT015 OVC030
     FM010900 06003KT 5SM -RA BR SCT007 OVC020
     FM011200 06003KT 5SM -RA BR OVC007
     FM011800 04002KT 3SM BR OVC004=



000
FTUS44 KLZK 282300
TAFPBF
TAF
KPBF 282320Z 0100/0124 03005KT P6SM VCSH OVC080
     FM010600 07004KT P6SM VCSH OVC050
     FM011200 02003KT 5SM -RA BR SCT007 OVC020
     FM011500 03003KT 5SM -RA BR OVC007=



000
FTUS44 KLZK 282000 AAB
TAFHRO
TAF AMD
KHRO 282028Z 2820/0118 12008KT 4SM -SN BR SCT015 OVC030
      TEMPO 2820/2823 2SM -SNPL OVC015
     FM282300 13006KT 3SM -FZRAPL BR SCT007 OVC012
     FM010600 14004KT 4SM BR OVC005
     FM011400 32005KT 5SM BR OVC007=



000
FTUS44 KLZK 281900 AAA
TAFHRO
TAF AMD
KHRO 281907Z 2819/0118 12008KT 3SM -SN BR SCT015 OVC030
      TEMPO 2819/2822 1SM -SN OVC015
     FM282200 13006KT 1SM -SNPL BR SCT007 OVC012
     FM010600 14004KT 4SM BR OVC005
     FM011400 32005KT 5SM BR OVC007=



000
FTUS44 KLZK 281700 AAA
TAFPBF
TAF AMD
KPBF 281752Z 2818/0118 05008KT P6SM OVC100
     FM010000 03005KT P6SM VCSH OVC060
     FM011200 02003KT 5SM -RA BR SCT007 OVC020
     FM011500 03003KT 5SM -RA BR OVC007=



000
FTUS44 KLZK 281700 AAA
TAFPBF
TAF AMD
KPBF 281752Z 2818/0118 05008KT P6SM OVC100
     FM010000 03005KT P6SM VCSH OVC060
     FM011200 02003KT 5SM -RA BR SCT007 OVC020
     FM011500 03003KT 5SM -RA BR OVC007=



000
FTUS44 KLZK 281700 RRA
TAFHRO
TAF
KHRO 281749Z 2818/0118 12008KT 2SM -SN BR SCT007 OVC015
      TEMPO 2818/2822 1/2SM SN OVC007
     FM282200 13006KT 1SM -SNPL BR OVC007
     FM010600 14004KT 4SM BR OVC005
     FM011400 32005KT 5SM BR OVC007=



000
FTUS44 KLZK 281700 RRA
TAFHOT
TAF
KHOT 281749Z 2818/0118 08006KT P6SM OVC050
     FM010000 07004KT P6SM VCSH OVC040
     FM011000 06003KT 5SM -RA BR SCT007 OVC020
     FM011400 06003KT 5SM -RA BR OVC007=



000
FTUS44 KLZK 281700 RRA
TAFLIT
TAF
KLIT 281749Z 2818/0118 06008KT P6SM OVC050
     FM010000 04005KT P6SM VCSH OVC050
     FM011000 03003KT 5SM -RA BR SCT007 OVC020
     FM011400 03003KT 5SM -RA BR OVC007=



000
FTUS44 KLZK 281700 RRA
TAFPBF
TAF
KPBF 281749Z 2818/0118 04009KT P6SM BKN060
     FM011000 04005KT P6SM VCSH OVC040=



000
FTUS44 KLZK 281700 RRA
TAFLIT
TAF
KLIT 281749Z 2818/0118 06008KT P6SM OVC050
     FM010000 04005KT P6SM VCSH OVC050
     FM011000 03003KT 5SM -RA BR SCT007 OVC020
     FM011400 03003KT 5SM -RA BR OVC007=



000
FTUS44 KLZK 281700 RRA
TAFPBF
TAF
KPBF 281749Z 2818/0118 04009KT P6SM BKN060
     FM011000 04005KT P6SM VCSH OVC040=



000
FTUS44 KLZK 281700 RRA
TAFHRO
TAF
KHRO 281749Z 2818/0118 12008KT 2SM -SN BR SCT007 OVC015
      TEMPO 2818/2822 1/2SM SN OVC007
     FM282200 13006KT 1SM -SNPL BR OVC007
     FM010600 14004KT 4SM BR OVC005
     FM011400 32005KT 5SM BR OVC007=



000
FTUS44 KLZK 281700 RRA
TAFHOT
TAF
KHOT 281749Z 2818/0118 08006KT P6SM OVC050
     FM010000 07004KT P6SM VCSH OVC040
     FM011000 06003KT 5SM -RA BR SCT007 OVC020
     FM011400 06003KT 5SM -RA BR OVC007=



000
FTUS44 KLZK 281400 AAB
TAFHRO
TAF AMD
KHRO 281446Z 2815/0112 11007KT 4SM -SN SCT020 OVC040
      TEMPO 2815/2818 1SM -SN BR BKN020
     FM281800 12009KT 3SM -SN BR OVC020
     FM010100 11007KT 5SM -FZRA BKN015 OVC035=



000
FTUS44 KLZK 281400 AAB
TAFHRO
TAF AMD
KHRO 281446Z 2815/0112 11007KT 4SM -SN SCT020 OVC040
      TEMPO 2815/2818 1SM -SN BR BKN020
     FM281800 12009KT 3SM -SN BR OVC020
     FM010100 11007KT 5SM -FZRA BKN015 OVC035=



000
FTUS44 KLZK 281200 AAA
TAFHRO
TAF AMD
KHRO 281240Z 2813/0112 11007KT 5SM -SN OVC040
      TEMPO 2813/2817 3SM -SN BR
     FM281800 12009KT 3SM -SN BR OVC020
     FM010100 11007KT 5SM -FZRA BKN015 OVC035=



000
FTUS44 KLZK 281200 AAA
TAFHRO
TAF AMD
KHRO 281240Z 2813/0112 11007KT 5SM -SN OVC040
      TEMPO 2813/2817 3SM -SN BR
     FM281800 12009KT 3SM -SN BR OVC020
     FM010100 11007KT 5SM -FZRA BKN015 OVC035=



000
FTUS44 KLZK 281100
TAFLIT
TAF
KLIT 281138Z 2812/0112 05007KT P6SM OVC060
     FM010500 06005KT P6SM VCSH OVC040=



000
FTUS44 KLZK 281100
TAFPBF
TAF
KPBF 281138Z 2812/0112 04009KT P6SM BKN060
     FM011000 04005KT P6SM VCSH OVC040=



000
FTUS44 KLZK 281100
TAFHOT
TAF
KHOT 281138Z 2812/0112 08006KT P6SM OVC050
     FM010500 09005KT P6SM VCSH OVC040=



000
FTUS44 KLZK 281100
TAFHRO
TAF
KHRO 281138Z 2812/0112 11007KT 6SM -SN OVC040
      TEMPO 2812/2816 2SM -SN BR
     FM281800 12009KT 3SM -SN BR OVC020
     FM010100 11007KT 5SM -FZRA BKN015 OVC035=



000
FTUS44 KLZK 280800 AAB
TAFHRO
TAF AMD
KHRO 280852Z 2809/0106 11007KT 6SM -SN OVC040
      TEMPO 2809/2813 2SM -SN BR
     FM281400 10007KT P6SM OVC050
     FM282000 09006KT 3SM -SN BR OVC030
     FM010100 VRB03KT 5SM -SN BR OVC015=



000
FTUS44 KLZK 280600 AAA
TAFHRO
TAF AMD
KHRO 280618Z 2806/0106 11007KT 6SM -SN OVC040
      TEMPO 2806/2810 2SM -SN BR OVC028
     FM281400 10007KT P6SM OVC050
     FM282000 09006KT 3SM -SN BR OVC030
     FM010100 VRB03KT 5SM -SN BR OVC015=



000
FTUS44 KLZK 280600 AAA
TAFHRO
TAF AMD
KHRO 280618Z 2806/0106 11007KT 6SM -SN OVC040
      TEMPO 2806/2810 2SM -SN BR OVC028
     FM281400 10007KT P6SM OVC050
     FM282000 09006KT 3SM -SN BR OVC030
     FM010100 VRB03KT 5SM -SN BR OVC015=



000
FTUS44 KLZK 280500
TAFPBF
TAF
KPBF 280521Z 2806/0106 02009KT P6SM SCT050 BKN100
     FM281400 04009KT P6SM SCT025 OVC050
     FM282000 09007KT 6SM BR OVC030
     FM010100 08005KT P6SM OVC040=



000
FTUS44 KLZK 280500
TAFHOT
TAF
KHOT 280521Z 2806/0106 08006KT P6SM OVC050
      TEMPO 2812/2816 OVC025
     FM282000 09007KT P6SM VCSH OVC030
     FM010100 08005KT P6SM OVC040=



000
FTUS44 KLZK 280500
TAFLIT
TAF
KLIT 280521Z 2806/0106 08006KT 6SM -SN OVC050
     FM281200 09007KT P6SM VCSH OVC030
     FM010100 08005KT P6SM OVC040=



000
FTUS44 KLZK 280500
TAFHRO
TAF
KHRO 280521Z 2806/0106 10007KT 6SM -SN OVC040
     FM281400 10007KT P6SM OVC050
     FM282000 09006KT 3SM -SN BR OVC030
     FM010100 VRB03KT 5SM -SN BR OVC015=



000
FTUS44 KLZK 280500
TAFLIT
TAF
KLIT 280521Z 2806/0106 08006KT 6SM -SN OVC050
     FM281200 09007KT P6SM VCSH OVC030
     FM010100 08005KT P6SM OVC040=



000
FTUS44 KLZK 280500
TAFHRO
TAF
KHRO 280521Z 2806/0106 10007KT 6SM -SN OVC040
     FM281400 10007KT P6SM OVC050
     FM282000 09006KT 3SM -SN BR OVC030
     FM010100 VRB03KT 5SM -SN BR OVC015=



000
FTUS44 KLZK 280500
TAFHOT
TAF
KHOT 280521Z 2806/0106 08006KT P6SM OVC050
      TEMPO 2812/2816 OVC025
     FM282000 09007KT P6SM VCSH OVC030
     FM010100 08005KT P6SM OVC040=



000
FTUS44 KLZK 280500
TAFPBF
TAF
KPBF 280521Z 2806/0106 02009KT P6SM SCT050 BKN100
     FM281400 04009KT P6SM SCT025 OVC050
     FM282000 09007KT 6SM BR OVC030
     FM010100 08005KT P6SM OVC040=



000
FTUS44 KLZK 272300
TAFPBF
TAF
KPBF 272325Z 2800/2824 02009KT P6SM SCT050 BKN100
     FM281400 04009KT P6SM SCT025 OVC050
     FM282000 09007KT 6SM BR OVC030=



000
FTUS44 KLZK 272300
TAFHOT
TAF
KHOT 272325Z 2800/2824 06010KT P6SM SCT025 OVC050
     FM280300 08006KT P6SM OVC030
      TEMPO 2812/2816 OVC015
     FM282000 09007KT P6SM VCSH OVC030=



000
FTUS44 KLZK 272300
TAFLIT
TAF
KLIT 272325Z 2800/2824 06010KT P6SM SCT025 OVC050
     FM280300 08006KT P6SM OVC030
      TEMPO 2812/2816 OVC015
     FM282000 09007KT 6SM BR OVC030=



000
FTUS44 KLZK 272300
TAFHRO
TAF
KHRO 272325Z 2800/2824 09007KT 1SM -SN BR SCT015 OVC030
      TEMPO 2800/2802 3SM -SN BR OVC015
     FM280200 08007KT P6SM OVC030
     FM281400 12007KT P6SM OVC050
     FM282000 13006KT 3SM -SN BR OVC030=



000
FTUS44 KLZK 272200 AAA
TAFHRO
TAF AMD
KHRO 272231Z 2723/2818 07007KT 1SM -SN BR SCT025 OVC040
      TEMPO 2723/2801 3SM -SN BR OVC015
     FM280100 08007KT P6SM OVC040
     FM281400 08007KT P6SM SCT025 OVC050=



000
FTUS44 KLZK 272200 AAA
TAFHRO
TAF AMD
KHRO 272231Z 2723/2818 07007KT 1SM -SN BR SCT025 OVC040
      TEMPO 2723/2801 3SM -SN BR OVC015
     FM280100 08007KT P6SM OVC040
     FM281400 08007KT P6SM SCT025 OVC050=



000
FTUS44 KLZK 271900 AAB
TAFPBF
TAF AMD
KPBF 271959Z 2720/2818 04010G18KT P6SM SCT030 BKN250
      TEMPO 2720/2722 BKN025
     FM280000 03009KT P6SM SCT060 BKN100
     FM281400 04009KT P6SM SCT025 OVC050=



000
FTUS44 KLZK 271700 RRA
TAFHOT
TAF
KHOT 271742Z 2718/2818 07008KT P6SM SCT060 BKN100
     FM280000 08007KT P6SM SCT025 OVC050=



000
FTUS44 KLZK 271700 RRA
TAFPBF
TAF
KPBF 271742Z 2718/2818 04010G18KT P6SM SCT100 BKN250
     FM280000 03009KT P6SM SCT060 BKN100
     FM281400 04009KT P6SM SCT025 OVC050=



000
FTUS44 KLZK 271700 RRA
TAFLIT
TAF
KLIT 271742Z 2718/2818 06009G16KT P6SM SCT100 BKN250
     FM280000 04008KT P6SM SCT060 BKN100
     FM281400 05009KT P6SM SCT025 OVC050=



000
FTUS44 KLZK 271700 RRA
TAFHRO
TAF
KHRO 271742Z 2718/2818 07007KT P6SM SCT060 BKN100
     FM280000 08007KT P6SM OVC060
     FM281400 08007KT P6SM SCT025 OVC050=



000
FTUS44 KLZK 271700 RRA
TAFHOT
TAF
KHOT 271742Z 2718/2818 07008KT P6SM SCT060 BKN100
     FM280000 08007KT P6SM SCT025 OVC050=



000
FTUS44 KLZK 271700 RRA
TAFPBF
TAF
KPBF 271742Z 2718/2818 04010G18KT P6SM SCT100 BKN250
     FM280000 03009KT P6SM SCT060 BKN100
     FM281400 04009KT P6SM SCT025 OVC050=



000
FTUS44 KLZK 271700 RRA
TAFLIT
TAF
KLIT 271742Z 2718/2818 06009G16KT P6SM SCT100 BKN250
     FM280000 04008KT P6SM SCT060 BKN100
     FM281400 05009KT P6SM SCT025 OVC050=



000
FTUS44 KLZK 271700 RRA
TAFHRO
TAF
KHRO 271742Z 2718/2818 07007KT P6SM SCT060 BKN100
     FM280000 08007KT P6SM OVC060
     FM281400 08007KT P6SM SCT025 OVC050=



000
FTUS44 KLZK 271700 AAA
TAFPBF
TAF AMD
KPBF 271723Z 2717/2812 04010G18KT P6SM SCT060 BKN250
     FM272200 03009G16KT P6SM BKN060
     FM280600 03007KT P6SM OVC020=



000
FTUS44 KLZK 271100
TAFPBF
TAF
KPBF 271124Z 2712/2812 02008G15KT P6SM BKN025
     FM272200 03009G18KT P6SM BKN060
     FM280600 03007KT P6SM OVC020=



000
FTUS44 KLZK 271100
TAFHOT
TAF
KHOT 271124Z 2712/2812 04008KT P6SM BKN100
     FM271800 06007KT P6SM BKN050
     FM272300 04005KT P6SM -SN OVC020
     FM280300 08006G15KT P6SM BKN050=



000
FTUS44 KLZK 271100
TAFLIT
TAF
KLIT 271124Z 2712/2812 02006KT P6SM BKN100
     FM271800 04009KT P6SM BKN050
     FM280400 07007KT P6SM BKN025=



000
FTUS44 KLZK 271100
TAFHRO
TAF
KHRO 271124Z 2712/2812 04008KT P6SM BKN100
     FM280000 09005KT P6SM -SN OVC050
     FM280400 10008KT P6SM -SN BKN020=



000
FTUS44 KLZK 270500
TAFHOT
TAF
KHOT 270534Z 2706/2806 02004KT P6SM SCT100
     FM271500 06007KT P6SM BKN100
     FM280000 09005KT P6SM OVC060 PROB30 2802/2806 5SM -SN=



000
FTUS44 KLZK 270500
TAFPBF
TAF
KPBF 270534Z 2706/2806 02008KT P6SM FEW250
     FM271600 04011G18KT P6SM BKN100
     FM280200 03009KT P6SM OVC060=



000
FTUS44 KLZK 270500
TAFLIT
TAF
KLIT 270534Z 2706/2806 02006KT P6SM FEW250
     FM271400 04012G20KT P6SM BKN100
     FM280000 06008KT P6SM OVC060=



000
FTUS44 KLZK 270500
TAFHRO
TAF
KHRO 270534Z 2706/2806 36006KT P6SM SCT250
     FM271200 03004KT P6SM SCT100 BKN250
     FM271800 07007KT P6SM OVC100
     FM280000 09005KT P6SM OVC050 PROB30 2800/2804 5SM -SN=



000
FTUS44 KLZK 262300
TAFLIT
TAF
KLIT 262339Z 2700/2724 35008KT P6SM BKN250
     FM271400 03012G20KT P6SM SCT100 BKN250
     FM271800 05009KT P6SM OVC100=



000
FTUS44 KLZK 262300
TAFHOT
TAF
KHOT 262339Z 2700/2724 36003KT P6SM BKN120
     FM270600 04005KT P6SM BKN250
     FM271400 06008KT P6SM SCT100 OVC250 PROB30 2722/2724 5SM -SN
      OVC060=



000
FTUS44 KLZK 262300
TAFHRO
TAF
KHRO 262339Z 2700/2724 32008KT P6SM SCT250
     FM270900 35003KT P6SM BKN250
     FM271400 04007KT P6SM SCT100 OVC250
     FM271800 07007KT P6SM OVC100 PROB30 2720/2724 5SM -SN OVC060=



000
FTUS44 KLZK 262300
TAFPBF
TAF
KPBF 262339Z 2700/2724 36006KT P6SM BKN250
     FM271400 03012G20KT P6SM SCT100 BKN250
     FM271800 03011G20KT P6SM OVC100=



000
FTUS44 KLZK 262100 AAA
TAFPBF
TAF AMD
KPBF 262153Z 2622/2718 35010G18KT P6SM SCT035 BKN250
      TEMPO 2622/2624 BKN035
     FM270100 01009KT P6SM BKN250
     FM271400 03012G20KT P6SM SCT100 BKN250=



000
FTUS44 KLZK 262100 AAA
TAFPBF
TAF AMD
KPBF 262153Z 2622/2718 35010G18KT P6SM SCT035 BKN250
      TEMPO 2622/2624 BKN035
     FM270100 01009KT P6SM BKN250
     FM271400 03012G20KT P6SM SCT100 BKN250=



000
FTUS44 KLZK 262000 AAA
TAFLIT
TAF AMD
KLIT 262016Z 2620/2718 35012G20KT P6SM SCT035 BKN250
     FM270100 01009KT P6SM BKN250
     FM271400 03012G20KT P6SM SCT100 BKN250=



000
FTUS44 KLZK 261700 RRA
TAFLIT
TAF
KLIT 261743Z 2618/2718 35014G22KT P6SM OVC025
     FM262200 35010G18KT P6SM SCT030 BKN250
     FM270100 01009KT P6SM BKN250
     FM271400 03012G20KT P6SM SCT100 BKN250=



000
FTUS44 KLZK 261700 RRA
TAFPBF
TAF
KPBF 261743Z 2618/2718 35012G20KT P6SM OVC020
     FM262300 36010G18KT P6SM SCT030 BKN250
      TEMPO 2623/2702 BKN025
     FM270200 01009KT P6SM BKN250
     FM271400 03012G20KT P6SM SCT100 BKN250=



000
FTUS44 KLZK 261700 RRA
TAFHOT
TAF
KHOT 261743Z 2618/2718 34009G16KT P6SM OVC025
     FM262200 34008KT P6SM SCT030 BKN250
     FM270100 02005KT P6SM BKN250
     FM271400 06007KT P6SM SCT100 BKN250=



000
FTUS44 KLZK 261700 RRA
TAFHRO
TAF
KHRO 261743Z 2618/2718 32012G20KT P6SM OVC025
     FM262200 32010G18KT P6SM SCT030 BKN250
     FM270100 33006KT P6SM BKN250
     FM271400 03007KT P6SM SCT100 BKN250=



000
FTUS44 KLZK 261700 RRA
TAFLIT
TAF
KLIT 261743Z 2618/2718 35014G22KT P6SM OVC025
     FM262200 35010G18KT P6SM SCT030 BKN250
     FM270100 01009KT P6SM BKN250
     FM271400 03012G20KT P6SM SCT100 BKN250=



000
FTUS44 KLZK 261700 RRA
TAFPBF
TAF
KPBF 261743Z 2618/2718 35012G20KT P6SM OVC020
     FM262300 36010G18KT P6SM SCT030 BKN250
      TEMPO 2623/2702 BKN025
     FM270200 01009KT P6SM BKN250
     FM271400 03012G20KT P6SM SCT100 BKN250=



000
FTUS44 KLZK 261700 RRA
TAFHOT
TAF
KHOT 261743Z 2618/2718 34009G16KT P6SM OVC025
     FM262200 34008KT P6SM SCT030 BKN250
     FM270100 02005KT P6SM BKN250
     FM271400 06007KT P6SM SCT100 BKN250=



000
FTUS44 KLZK 261700 RRA
TAFHRO
TAF
KHRO 261743Z 2618/2718 32012G20KT P6SM OVC025
     FM262200 32010G18KT P6SM SCT030 BKN250
     FM270100 33006KT P6SM BKN250
     FM271400 03007KT P6SM SCT100 BKN250=



000
FTUS44 KLZK 261600 AAC
TAFLIT
TAF AMD
KLIT 261604Z 2616/2712 34010G18KT P6SM SCT025 BKN060
      TEMPO 2616/2618 BKN020
     FM270000 01008KT P6SM SCT035 SCT060
     FM270800 03008KT P6SM BKN015=



000
FTUS44 KLZK 261400 AAB
TAFLIT
TAF AMD
KLIT 261400Z 2614/2712 34010G18KT P6SM BKN060
     FM270000 01008KT P6SM SCT035 SCT060
     FM270800 03008KT P6SM BKN015=



    US Dept of Commerce
    National Oceanic and Atmospheric Administration
    National Weather Service
    1325 East West Highway
    Silver Spring, MD 20910
    Page Author: NWS Internet Services Team
Disclaimer
Information Quality
Credits
Glossary
Privacy Policy
Freedom of Information Act (FOIA)
About Us
Career Opportunities